createdAt,value
2017-01-21T01:01:12.504Z,16.99
2017-01-21T01:02:12.438Z,16.99
2017-01-21T01:03:12.372Z,16.89
2017-01-21T01:04:12.310Z,16.99
2017-01-21T01:05:12.248Z,16.89
2017-01-21T01:06:12.185Z,16.99
2017-01-21T01:07:12.123Z,16.89
2017-01-21T01:08:12.060Z,16.89
2017-01-21T01:09:11.999Z,17.09
2017-01-21T01:10:11.940Z,16.99
2017-01-21T01:11:11.874Z,16.89
2017-01-21T01:12:11.816Z,16.89
2017-01-21T01:13:11.751Z,16.99
2017-01-21T01:14:11.691Z,16.99
2017-01-21T01:15:11.628Z,16.89
2017-01-21T01:16:11.567Z,16.89
2017-01-21T01:17:11.502Z,16.99
2017-01-21T01:18:11.444Z,16.99
2017-01-21T01:19:11.379Z,16.89
2017-01-21T01:20:11.317Z,16.89
2017-01-21T01:21:11.255Z,16.99
2017-01-21T01:22:11.193Z,16.89
2017-01-21T01:23:11.134Z,16.89
2017-01-21T01:24:11.071Z,16.89
2017-01-21T01:25:11.006Z,16.99
2017-01-21T01:26:10.947Z,16.99
2017-01-21T01:27:10.882Z,16.89
2017-01-21T01:28:10.822Z,16.89
2017-01-21T01:29:10.758Z,16.99
2017-01-21T01:30:10.698Z,16.89
2017-01-21T01:31:10.636Z,16.89
2017-01-21T01:32:10.574Z,16.89
2017-01-21T01:33:10.513Z,16.99
2017-01-21T01:34:10.451Z,16.89
2017-01-21T01:35:10.386Z,16.89
2017-01-21T01:36:10.324Z,16.99
2017-01-21T01:37:10.284Z,16.99
2017-01-21T01:38:10.202Z,16.89
2017-01-21T01:39:10.139Z,17.19
2017-01-21T01:40:10.077Z,16.89
2017-01-21T01:41:10.018Z,16.89
2017-01-21T01:42:09.954Z,16.89
2017-01-21T01:43:09.894Z,16.99
2017-01-21T01:44:09.828Z,16.99
2017-01-21T01:45:09.765Z,16.99
2017-01-21T01:46:09.706Z,16.99
2017-01-21T01:47:09.643Z,16.99
2017-01-21T01:48:09.588Z,16.8
2017-01-21T01:49:09.524Z,16.8
2017-01-21T01:50:09.458Z,16.8
2017-01-21T01:51:09.400Z,16.89
2017-01-21T01:52:09.355Z,16.99
2017-01-21T01:53:09.285Z,16.89
2017-01-21T01:54:09.216Z,17.29
2017-01-21T01:55:09.150Z,16.89
2017-01-21T01:56:09.087Z,16.99
2017-01-21T01:57:09.027Z,17.09
2017-01-21T01:58:08.965Z,16.99
2017-01-21T01:59:08.902Z,17
2017-01-21T02:00:08.841Z,16.7
2017-01-21T02:01:08.781Z,16.89
2017-01-21T02:02:08.718Z,17
2017-01-21T02:03:08.659Z,17
2017-01-21T02:04:08.595Z,16.99
2017-01-21T02:05:08.531Z,17
2017-01-21T02:06:08.469Z,16.89
2017-01-21T02:07:08.417Z,16.89
2017-01-21T02:08:08.347Z,16.9
2017-01-21T02:09:08.288Z,16.89
2017-01-21T02:10:08.226Z,16.89
2017-01-21T02:11:08.163Z,16.89
2017-01-21T02:12:08.101Z,17
2017-01-21T02:13:08.041Z,16.89
2017-01-21T02:14:07.977Z,16.8
2017-01-21T02:15:07.916Z,16.89
2017-01-21T02:16:07.864Z,16.99
2017-01-21T02:17:07.795Z,16.89
2017-01-21T02:18:07.734Z,16.9
2017-01-21T02:19:07.669Z,17
2017-01-21T02:20:07.610Z,17
2017-01-21T02:21:07.546Z,16.8
2017-01-21T02:22:07.486Z,16.7
2017-01-21T02:23:07.423Z,16.89
2017-01-21T02:24:07.363Z,17
2017-01-21T02:25:07.303Z,16.9
2017-01-21T02:26:07.239Z,17
2017-01-21T02:27:07.178Z,16.9
2017-01-21T02:28:07.114Z,16.71
2017-01-21T02:29:07.054Z,16.81
2017-01-21T02:30:06.993Z,16.81
2017-01-21T02:31:06.933Z,17
2017-01-21T02:32:06.868Z,16.9
2017-01-21T02:33:06.808Z,17
2017-01-21T02:34:06.751Z,16.81
2017-01-21T02:35:06.690Z,17
2017-01-21T02:36:06.624Z,16.9
2017-01-21T02:37:06.565Z,16.9
2017-01-21T02:38:06.500Z,17
2017-01-21T02:39:06.438Z,16.99
2017-01-21T02:40:06.379Z,16.9
2017-01-21T02:41:06.317Z,17
2017-01-21T02:42:06.258Z,17.1
2017-01-21T02:43:06.196Z,17
2017-01-21T02:44:06.132Z,16.9
2017-01-21T02:45:06.070Z,17
2017-01-21T02:46:06.010Z,17
2017-01-21T02:47:05.946Z,17
2017-01-21T02:48:05.888Z,17
2017-01-21T02:49:05.824Z,16.9
2017-01-21T02:50:05.764Z,16.9
2017-01-21T02:51:05.700Z,16.9
2017-01-21T02:52:05.637Z,16.9
2017-01-21T02:53:05.576Z,16.89
2017-01-21T02:54:05.516Z,17
2017-01-21T02:55:05.453Z,17.09
2017-01-21T02:56:05.392Z,16.9
2017-01-21T02:57:05.331Z,17
2017-01-21T02:58:05.268Z,16.9
2017-01-21T02:59:05.209Z,16.9
2017-01-21T03:00:05.163Z,17
2017-01-21T03:01:05.084Z,16.9
2017-01-21T03:02:05.021Z,16.9
2017-01-21T03:03:04.967Z,16.9
2017-01-21T03:04:04.900Z,16.9
2017-01-21T03:05:04.839Z,17
2017-01-21T03:06:04.777Z,17.1
2017-01-21T03:07:04.716Z,17
2017-01-21T03:08:04.658Z,17.1
2017-01-21T03:09:04.591Z,16.9
2017-01-21T03:10:04.527Z,17
2017-01-21T03:11:04.468Z,16.81
2017-01-21T03:12:04.406Z,17
2017-01-21T03:13:04.546Z,16.99
2017-01-21T03:14:04.283Z,17
2017-01-21T03:15:04.222Z,17.1
2017-01-21T03:16:04.158Z,16.89
2017-01-21T03:17:04.099Z,16.81
2017-01-21T03:18:04.034Z,17
2017-01-21T03:19:03.973Z,16.71
2017-01-21T03:20:03.911Z,17
2017-01-21T03:21:03.853Z,16.81
2017-01-21T03:22:03.817Z,17
2017-01-21T03:23:03.729Z,17
2017-01-21T03:24:03.664Z,16.9
2017-01-21T03:25:03.625Z,17
2017-01-21T03:26:03.541Z,16.9
2017-01-21T03:27:03.873Z,16.9
2017-01-21T03:28:03.417Z,16.71
2017-01-21T03:29:03.359Z,17
2017-01-21T03:30:03.293Z,17
2017-01-21T03:31:03.232Z,17
2017-01-21T03:32:03.564Z,16.9
2017-01-21T03:33:03.111Z,16.89
2017-01-21T03:34:03.053Z,16.9
2017-01-21T03:35:03.377Z,16.9
2017-01-21T03:36:02.923Z,16.89
2017-01-21T03:37:02.863Z,16.99
2017-01-21T03:38:02.800Z,16.9
2017-01-21T03:39:02.740Z,16.9
2017-01-21T03:40:02.679Z,16.9
2017-01-21T03:41:02.616Z,16.89
2017-01-21T03:42:02.552Z,16.71
2017-01-21T03:43:02.492Z,16.9
2017-01-21T03:44:02.430Z,16.89
2017-01-21T03:45:02.368Z,16.7
2017-01-21T03:46:02.307Z,16.9
2017-01-21T03:47:02.249Z,16.71
2017-01-21T03:48:02.184Z,16.9
2017-01-21T03:49:02.121Z,17
2017-01-21T03:50:02.063Z,16.99
2017-01-21T03:51:02.000Z,16.99
2017-01-21T03:52:01.935Z,16.7
2017-01-21T03:53:01.873Z,16.99
2017-01-21T03:54:01.812Z,16.89
2017-01-21T03:55:01.751Z,16.9
2017-01-21T03:56:01.687Z,16.7
2017-01-21T03:57:01.628Z,16.89
2017-01-21T03:58:01.571Z,16.89
2017-01-21T03:59:01.506Z,16.89
2017-01-21T04:00:01.440Z,16.89
2017-01-21T04:01:01.379Z,16.8
2017-01-21T04:02:01.318Z,16.89
2017-01-21T04:03:01.254Z,16.7
2017-01-21T04:04:01.200Z,16.89
2017-01-21T04:05:01.132Z,16.9
2017-01-21T04:06:01.071Z,16.7
2017-01-21T04:07:01.210Z,16.9
2017-01-21T04:08:00.949Z,17
2017-01-21T04:09:00.886Z,16.8
2017-01-21T04:10:00.823Z,16.8
2017-01-21T04:11:00.765Z,16.7
2017-01-21T04:12:00.702Z,16.99
2017-01-21T04:13:00.640Z,16.89
2017-01-21T04:14:00.575Z,16.89
2017-01-21T04:15:00.518Z,16.89
2017-01-21T04:16:00.453Z,16.81
2017-01-21T04:17:00.390Z,16.81
2017-01-21T04:18:00.330Z,16.81
2017-01-21T04:19:00.268Z,16.9
2017-01-21T04:20:00.207Z,16.89
2017-01-21T04:21:00.145Z,16.7
2017-01-21T04:22:00.081Z,17
2017-01-21T04:23:00.021Z,16.99
2017-01-21T04:23:59.958Z,16.8
2017-01-21T04:24:59.895Z,16.81
2017-01-21T04:25:59.838Z,16.7
2017-01-21T04:26:59.771Z,16.7
2017-01-21T04:27:59.712Z,16.8
2017-01-21T04:28:59.648Z,16.89
2017-01-21T04:29:59.605Z,16.8
2017-01-21T04:30:59.526Z,16.89
2017-01-21T04:31:59.462Z,16.89
2017-01-21T04:32:59.399Z,16.8
2017-01-21T04:33:59.338Z,16.89
2017-01-21T04:34:59.277Z,16.89
2017-01-21T04:35:59.215Z,16.89
2017-01-21T04:36:59.155Z,16.99
2017-01-21T04:37:59.091Z,16.7
2017-01-21T04:38:59.029Z,16.89
2017-01-21T04:39:58.967Z,16.89
2017-01-21T04:40:58.906Z,16.89
2017-01-21T04:41:58.843Z,16.99
2017-01-21T04:42:58.783Z,16.89
2017-01-21T04:43:58.719Z,16.89
2017-01-21T04:44:58.660Z,16.89
2017-01-21T04:45:58.597Z,16.8
2017-01-21T04:46:58.535Z,16.89
2017-01-21T04:47:58.472Z,16.89
2017-01-21T04:48:58.411Z,16.99
2017-01-21T04:49:58.347Z,16.89
2017-01-21T04:50:58.296Z,16.99
2017-01-21T04:51:58.224Z,16.99
2017-01-21T04:52:58.165Z,16.99
2017-01-21T04:53:58.100Z,16.7
2017-01-21T04:54:58.045Z,16.99
2017-01-21T04:55:57.976Z,16.89
2017-01-21T04:56:57.915Z,16.99
2017-01-21T04:57:57.852Z,16.99
2017-01-21T04:58:57.792Z,16.99
2017-01-21T04:59:57.729Z,16.89
2017-01-21T05:00:58.867Z,16.8
2017-01-21T05:01:57.608Z,17.09
2017-01-21T05:02:57.546Z,16.7
2017-01-21T05:03:57.482Z,16.99
2017-01-21T05:04:57.419Z,16.89
2017-01-21T05:05:57.357Z,16.99
2017-01-21T05:06:57.296Z,16.99
2017-01-21T05:07:57.233Z,16.89
2017-01-21T05:08:57.172Z,16.8
2017-01-21T05:09:57.110Z,17.09
2017-01-21T05:10:57.049Z,16.89
2017-01-21T05:11:56.986Z,16.8
2017-01-21T05:12:56.927Z,16.99
2017-01-21T05:13:56.861Z,16.89
2017-01-21T05:14:56.810Z,16.99
2017-01-21T05:15:56.737Z,16.89
2017-01-21T05:16:56.676Z,16.89
2017-01-21T05:17:56.616Z,17.19
2017-01-21T05:18:56.552Z,16.89
2017-01-21T05:19:56.492Z,17.38
2017-01-21T05:20:56.428Z,17.19
2017-01-21T05:21:56.366Z,16.89
2017-01-21T05:22:56.306Z,17.47
2017-01-21T05:23:56.247Z,17.19
2017-01-21T05:24:56.180Z,17.28
2017-01-21T05:25:56.120Z,17.28
2017-01-21T05:26:56.057Z,17.19
2017-01-21T05:27:55.997Z,17.28
2017-01-21T05:28:55.934Z,17.28
2017-01-21T05:29:55.872Z,17.29
2017-01-21T05:30:55.809Z,17.19
2017-01-21T05:31:55.749Z,17.29
2017-01-21T05:32:55.685Z,17.29
2017-01-21T05:33:55.623Z,17.29
2017-01-21T05:34:55.563Z,16.9
2017-01-21T05:35:55.501Z,16.9
2017-01-21T05:36:55.441Z,16.9
2017-01-21T05:37:55.377Z,16.9
2017-01-21T05:38:55.315Z,17
2017-01-21T05:39:55.254Z,17
2017-01-21T05:40:55.204Z,17
2017-01-21T05:41:55.135Z,16.81
2017-01-21T05:42:55.068Z,17
2017-01-21T05:43:55.007Z,16.9
2017-01-21T05:44:54.948Z,16.9
2017-01-21T05:45:54.887Z,17
2017-01-21T05:46:54.825Z,16.9
2017-01-21T05:47:54.763Z,17
2017-01-21T05:48:54.703Z,17
2017-01-21T05:49:54.645Z,17
2017-01-21T05:50:54.580Z,16.9
2017-01-21T05:51:54.518Z,16.81
2017-01-21T05:52:54.455Z,16.9
2017-01-21T05:53:54.392Z,17.39
2017-01-21T05:54:54.332Z,16.81
2017-01-21T05:55:54.269Z,17.39
2017-01-21T05:56:54.209Z,16.9
2017-01-21T05:57:54.147Z,17.39
2017-01-21T05:58:54.085Z,17.19
2017-01-21T05:59:54.024Z,17.29
2017-01-21T06:00:53.962Z,16.9
2017-01-21T06:01:53.902Z,17.29
2017-01-21T06:02:53.842Z,17.29
2017-01-21T06:03:53.777Z,17
2017-01-21T06:04:53.716Z,17.29
2017-01-21T06:05:53.660Z,17.19
2017-01-21T06:06:53.592Z,17.48
2017-01-21T06:07:53.532Z,17.39
2017-01-21T06:08:53.469Z,17.39
2017-01-21T06:09:53.411Z,17.39
2017-01-21T06:10:53.347Z,17.48
2017-01-21T06:11:53.287Z,17.48
2017-01-21T06:12:53.224Z,17.29
2017-01-21T06:13:53.165Z,17.58
2017-01-21T06:14:53.100Z,17.29
2017-01-21T06:15:53.040Z,17.39
2017-01-21T06:16:52.977Z,17.39
2017-01-21T06:17:52.916Z,17.48
2017-01-21T06:18:52.857Z,17.29
2017-01-21T06:19:52.793Z,17.58
2017-01-21T06:20:52.733Z,17.29
2017-01-21T06:21:52.670Z,17.19
2017-01-21T06:22:52.609Z,17.39
2017-01-21T06:23:52.547Z,17.29
2017-01-21T06:24:52.490Z,17.19
2017-01-21T06:25:52.423Z,17.19
2017-01-21T06:26:52.364Z,17.58
2017-01-21T06:27:52.299Z,17.39
2017-01-21T06:28:52.242Z,17.19
2017-01-21T06:29:52.176Z,17.39
2017-01-21T06:30:52.115Z,17.29
2017-01-21T06:31:52.062Z,17.58
2017-01-21T06:32:51.994Z,17.39
2017-01-21T06:33:51.930Z,17.29
2017-01-21T06:34:51.869Z,17.39
2017-01-21T06:35:51.814Z,17.29
2017-01-21T06:36:51.745Z,17.39
2017-01-21T06:37:51.686Z,17.29
2017-01-21T06:38:51.622Z,17.39
2017-01-21T06:39:51.561Z,17.39
2017-01-21T06:40:51.498Z,17.39
2017-01-21T06:41:51.439Z,17.39
2017-01-21T06:42:51.377Z,17.39
2017-01-21T06:43:51.315Z,17.39
2017-01-21T06:44:51.253Z,17.29
2017-01-21T06:45:51.194Z,17.48
2017-01-21T06:46:51.129Z,17.48
2017-01-21T06:47:52.271Z,17.39
2017-01-21T06:48:51.007Z,17.48
2017-01-21T06:49:50.969Z,17.58
2017-01-21T06:50:50.884Z,17.58
2017-01-21T06:51:50.821Z,17.29
2017-01-21T06:52:50.759Z,17.58
2017-01-21T06:53:50.697Z,17.29
2017-01-21T06:54:50.634Z,17.29
2017-01-21T06:55:50.574Z,17.48
2017-01-21T06:56:50.517Z,17.19
2017-01-21T06:57:50.451Z,17.1
2017-01-21T06:58:50.394Z,17.29
2017-01-21T06:59:50.327Z,17.19
2017-01-21T07:00:50.267Z,17.1
2017-01-21T07:01:50.224Z,17.19
2017-01-21T07:02:50.140Z,17.19
2017-01-21T07:03:50.082Z,17.48
2017-01-21T07:04:50.022Z,17.19
2017-01-21T07:05:49.959Z,17.1
2017-01-21T07:06:49.899Z,17.1
2017-01-21T07:07:49.836Z,17.48
2017-01-21T07:08:49.774Z,17.1
2017-01-21T07:09:49.760Z,17.1
2017-01-21T07:10:49.650Z,17.48
2017-01-21T07:11:49.586Z,17.48
2017-01-21T07:12:49.524Z,17.19
2017-01-21T07:13:49.464Z,17.1
2017-01-21T07:14:49.403Z,17.48
2017-01-21T07:15:49.342Z,17.19
2017-01-21T07:16:49.281Z,17.58
2017-01-21T07:17:49.217Z,17.1
2017-01-21T07:18:49.156Z,17.19
2017-01-21T07:19:49.095Z,17.39
2017-01-21T07:20:49.034Z,17.19
2017-01-21T07:21:48.970Z,17.19
2017-01-21T07:22:48.912Z,17.29
2017-01-21T07:23:48.849Z,17.19
2017-01-21T07:24:48.785Z,17.19
2017-01-21T07:25:48.724Z,17.19
2017-01-21T07:26:48.663Z,17.19
2017-01-21T07:27:48.602Z,17.19
2017-01-21T07:28:48.539Z,17.19
2017-01-21T07:29:48.480Z,17.19
2017-01-21T07:30:48.414Z,17.19
2017-01-21T07:31:48.353Z,17.19
2017-01-21T07:32:48.289Z,17.19
2017-01-21T07:33:48.228Z,17.29
2017-01-21T07:34:48.168Z,17.19
2017-01-21T07:35:48.109Z,17.1
2017-01-21T07:36:48.043Z,17.1
2017-01-21T07:37:47.982Z,17.1
2017-01-21T07:38:47.924Z,17.19
2017-01-21T07:39:47.860Z,17
2017-01-21T07:40:47.800Z,17.19
2017-01-21T07:41:47.738Z,17.1
2017-01-21T07:42:47.672Z,17.1
2017-01-21T07:43:47.613Z,17
2017-01-21T07:44:47.549Z,17.1
2017-01-21T07:45:47.488Z,17.1
2017-01-21T07:46:47.429Z,17.1
2017-01-21T07:47:47.364Z,17.1
2017-01-21T07:48:47.304Z,17.09
2017-01-21T07:49:47.239Z,17
2017-01-21T07:50:47.178Z,16.89
2017-01-21T07:51:47.125Z,16.99
2017-01-21T07:52:47.058Z,16.99
2017-01-21T07:53:46.992Z,16.99
2017-01-21T07:54:47.322Z,16.99
2017-01-21T07:55:46.869Z,16.99
2017-01-21T07:56:46.806Z,16.9
2017-01-21T07:57:46.745Z,17.09
2017-01-21T07:58:46.683Z,16.99
2017-01-21T07:59:46.624Z,17.39
2017-01-21T08:00:46.560Z,17.38
2017-01-21T08:01:46.499Z,17.68
2017-01-21T08:02:46.437Z,17.67
2017-01-21T08:03:46.374Z,16.99
2017-01-21T08:04:46.312Z,17.68
2017-01-21T08:05:46.642Z,17.39
2017-01-21T08:06:46.187Z,17.09
2017-01-21T08:07:46.127Z,17.47
2017-01-21T08:08:46.064Z,17.58
2017-01-21T08:09:46.001Z,17.68
2017-01-21T08:10:45.939Z,17.67
2017-01-21T08:11:45.877Z,17.48
2017-01-21T08:12:45.816Z,17.58
2017-01-21T08:13:45.752Z,17.77
2017-01-21T08:14:45.693Z,17.47
2017-01-21T08:15:45.630Z,17.48
2017-01-21T08:16:45.569Z,17.38
2017-01-21T08:17:45.506Z,17.57
2017-01-21T08:18:45.442Z,17.58
2017-01-21T08:19:45.383Z,17.57
2017-01-21T08:20:45.320Z,17.67
2017-01-21T08:21:45.258Z,17.57
2017-01-21T08:22:45.195Z,17.67
2017-01-21T08:23:45.132Z,17.67
2017-01-21T08:24:45.071Z,17.67
2017-01-21T08:25:45.008Z,17.38
2017-01-21T08:26:44.948Z,17.28
2017-01-21T08:27:44.885Z,17.28
2017-01-21T08:28:44.823Z,17.28
2017-01-21T08:29:44.760Z,17.28
2017-01-21T08:30:44.698Z,17.28
2017-01-21T08:31:44.638Z,17.28
2017-01-21T08:32:44.578Z,17.28
2017-01-21T08:33:44.511Z,17.19
2017-01-21T08:34:44.456Z,17.09
2017-01-21T08:35:44.389Z,17.19
2017-01-21T08:36:44.325Z,17.28
2017-01-21T08:37:44.264Z,17.09
2017-01-21T08:38:44.202Z,17.19
2017-01-21T08:39:44.140Z,17.19
2017-01-21T08:40:44.077Z,17.19
2017-01-21T08:41:44.015Z,17.19
2017-01-21T08:42:43.955Z,17.19
2017-01-21T08:43:43.895Z,17.19
2017-01-21T08:44:43.830Z,17.38
2017-01-21T08:45:43.768Z,17.19
2017-01-21T08:46:43.707Z,17.47
2017-01-21T08:47:44.843Z,17.38
2017-01-21T08:48:43.581Z,17.57
2017-01-21T08:49:43.520Z,17.38
2017-01-21T08:50:43.460Z,17.28
2017-01-21T08:51:43.393Z,17.47
2017-01-21T08:52:43.334Z,17.28
2017-01-21T08:53:43.269Z,17.38
2017-01-21T08:54:43.210Z,17.67
2017-01-21T08:55:43.146Z,17.76
2017-01-21T08:56:43.086Z,17.86
2017-01-21T08:57:43.027Z,17.76
2017-01-21T08:58:42.961Z,17.67
2017-01-21T08:59:42.930Z,17.76
2017-01-21T09:00:42.840Z,17.67
2017-01-21T09:01:42.777Z,17.68
2017-01-21T09:02:42.713Z,17.67
2017-01-21T09:03:42.653Z,17.67
2017-01-21T09:04:42.589Z,17.76
2017-01-21T09:05:42.530Z,17.67
2017-01-21T09:06:42.465Z,17.67
2017-01-21T09:07:42.408Z,17.67
2017-01-21T09:08:42.734Z,17.67
2017-01-21T09:09:42.280Z,17.67
2017-01-21T09:10:42.218Z,17.67
2017-01-21T09:11:42.159Z,17.58
2017-01-21T09:12:42.095Z,17.68
2017-01-21T09:13:42.035Z,17.77
2017-01-21T09:14:41.974Z,17.29
2017-01-21T09:15:41.910Z,17.19
2017-01-21T09:16:41.850Z,17.39
2017-01-21T09:17:41.786Z,17.29
2017-01-21T09:18:41.728Z,17.19
2017-01-21T09:19:41.667Z,17.19
2017-01-21T09:20:41.601Z,17.1
2017-01-21T09:21:41.540Z,17.19
2017-01-21T09:22:41.478Z,17.19
2017-01-21T09:23:41.422Z,17.19
2017-01-21T09:24:41.354Z,17.19
2017-01-21T09:25:41.294Z,17.19
2017-01-21T09:26:41.232Z,17.19
2017-01-21T09:27:41.170Z,17.19
2017-01-21T09:28:41.110Z,17.19
2017-01-21T09:29:41.047Z,17.19
2017-01-21T09:30:40.985Z,17.19
2017-01-21T09:31:40.924Z,17.19
2017-01-21T09:32:40.861Z,17.19
2017-01-21T09:33:40.801Z,17.19
2017-01-21T09:34:40.742Z,17.19
2017-01-21T09:35:40.684Z,17.19
2017-01-21T09:36:40.617Z,17.19
2017-01-21T09:37:40.552Z,17.58
2017-01-21T09:38:40.493Z,17.19
2017-01-21T09:39:40.429Z,17.48
2017-01-21T09:40:40.373Z,17.19
2017-01-21T09:41:40.314Z,17.48
2017-01-21T09:42:40.245Z,17.39
2017-01-21T09:43:40.186Z,17.48
2017-01-21T09:44:40.132Z,17.19
2017-01-21T09:45:40.062Z,17.48
2017-01-21T09:46:39.996Z,17.39
2017-01-21T09:47:39.942Z,17.48
2017-01-21T09:48:39.878Z,17.19
2017-01-21T09:49:39.821Z,17.29
2017-01-21T09:50:39.756Z,17.39
2017-01-21T09:51:39.692Z,17.39
2017-01-21T09:52:39.628Z,17.29
2017-01-21T09:53:39.568Z,17.19
2017-01-21T09:54:39.512Z,17.19
2017-01-21T09:55:39.444Z,17.19
2017-01-21T09:56:39.382Z,17.48
2017-01-21T09:57:39.318Z,17.19
2017-01-21T09:58:39.273Z,17.19
2017-01-21T09:59:39.196Z,17.29
2017-01-21T10:00:39.137Z,17.39
2017-01-21T10:01:39.074Z,17.48
2017-01-21T10:02:39.011Z,17.39
2017-01-21T10:03:38.952Z,17.29
2017-01-21T10:04:38.888Z,17.29
2017-01-21T10:05:38.826Z,17.19
2017-01-21T10:06:38.763Z,17.48
2017-01-21T10:07:38.703Z,17.48
2017-01-21T10:08:38.645Z,17.19
2017-01-21T10:09:38.587Z,17.19
2017-01-21T10:10:38.516Z,17.19
2017-01-21T10:11:38.460Z,17.19
2017-01-21T10:12:38.394Z,17.19
2017-01-21T10:13:38.331Z,17.19
2017-01-21T10:14:38.662Z,17.19
2017-01-21T10:15:38.208Z,17.19
2017-01-21T10:16:38.150Z,17.19
2017-01-21T10:17:38.084Z,17.1
2017-01-21T10:18:38.024Z,17.19
2017-01-21T10:19:37.960Z,17.19
2017-01-21T10:20:37.903Z,17.19
2017-01-21T10:21:37.839Z,17.29
2017-01-21T10:22:37.776Z,17.29
2017-01-21T10:23:37.713Z,17.39
2017-01-21T10:24:37.655Z,17.19
2017-01-21T10:25:37.591Z,17.1
2017-01-21T10:26:37.530Z,17.39
2017-01-21T10:27:37.471Z,17.48
2017-01-21T10:28:37.407Z,17.48
2017-01-21T10:29:37.345Z,17.29
2017-01-21T10:30:37.284Z,17.19
2017-01-21T10:31:37.225Z,17.19
2017-01-21T10:32:37.162Z,17.19
2017-01-21T10:33:37.101Z,17.19
2017-01-21T10:34:37.036Z,17.19
2017-01-21T10:35:36.980Z,17.19
2017-01-21T10:36:36.918Z,17.19
2017-01-21T10:37:36.854Z,17.19
2017-01-21T10:38:36.792Z,17.19
2017-01-21T10:39:36.731Z,17.19
2017-01-21T10:40:36.678Z,17.19
2017-01-21T10:41:36.618Z,17.1
2017-01-21T10:42:36.546Z,17.39
2017-01-21T10:43:36.488Z,17.19
2017-01-21T10:44:36.422Z,17.19
2017-01-21T10:45:36.360Z,17.39
2017-01-21T10:46:36.299Z,17.87
2017-01-21T10:47:36.237Z,17.39
2017-01-21T10:48:36.174Z,17.39
2017-01-21T10:49:36.508Z,17.39
2017-01-21T10:50:36.053Z,17.39
2017-01-21T10:51:35.991Z,17.48
2017-01-21T10:52:35.929Z,17.48
2017-01-21T10:53:35.867Z,17.19
2017-01-21T10:54:35.804Z,17.29
2017-01-21T10:55:35.744Z,17.48
2017-01-21T10:56:35.686Z,17.58
2017-01-21T10:57:35.621Z,17.58
2017-01-21T10:58:35.559Z,17.58
2017-01-21T10:59:35.502Z,17.29
2017-01-21T11:00:35.434Z,17.39
2017-01-21T11:01:35.373Z,17.68
2017-01-21T11:02:35.310Z,17.48
2017-01-21T11:03:35.644Z,17.68
2017-01-21T11:04:35.188Z,17.77
2017-01-21T11:05:35.128Z,17.39
2017-01-21T11:06:35.068Z,17.58
2017-01-21T11:07:35.007Z,17.58
2017-01-21T11:08:34.948Z,17.58
2017-01-21T11:09:34.883Z,17.68
2017-01-21T11:10:34.818Z,17.58
2017-01-21T11:11:34.756Z,17.58
2017-01-21T11:12:34.695Z,17.68
2017-01-21T11:13:34.636Z,17.57
2017-01-21T11:14:34.572Z,17.68
2017-01-21T11:15:34.512Z,17.58
2017-01-21T11:16:34.451Z,17.77
2017-01-21T11:17:34.388Z,17.58
2017-01-21T11:18:34.326Z,17.77
2017-01-21T11:19:34.265Z,17.47
2017-01-21T11:20:34.203Z,17.58
2017-01-21T11:21:34.143Z,17.77
2017-01-21T11:22:34.081Z,17.76
2017-01-21T11:23:34.018Z,17.87
2017-01-21T11:24:33.955Z,17.76
2017-01-21T11:25:33.895Z,17.67
2017-01-21T11:26:33.832Z,17.67
2017-01-21T11:27:34.163Z,17.86
2017-01-21T11:28:33.708Z,17.87
2017-01-21T11:29:33.647Z,17.76
2017-01-21T11:30:33.586Z,17.67
2017-01-21T11:31:33.524Z,17.68
2017-01-21T11:32:33.462Z,17.68
2017-01-21T11:33:33.399Z,17.68
2017-01-21T11:34:33.339Z,17.67
2017-01-21T11:35:33.276Z,17.67
2017-01-21T11:36:33.215Z,17.67
2017-01-21T11:37:33.154Z,17.67
2017-01-21T11:38:33.097Z,17.68
2017-01-21T11:39:33.030Z,17.86
2017-01-21T11:40:32.968Z,17.76
2017-01-21T11:41:32.907Z,17.76
2017-01-21T11:42:32.844Z,17.76
2017-01-21T11:43:33.176Z,17.67
2017-01-21T11:44:32.722Z,17.68
2017-01-21T11:45:32.660Z,17.67
2017-01-21T11:46:32.598Z,17.76
2017-01-21T11:47:32.537Z,17.76
2017-01-21T11:48:32.476Z,17.77
2017-01-21T11:49:32.413Z,17.76
2017-01-21T11:50:32.350Z,17.67
2017-01-21T11:51:32.289Z,17.67
2017-01-21T11:52:32.229Z,17.57
2017-01-21T11:53:32.168Z,17.76
2017-01-21T11:54:32.129Z,17.57
2017-01-21T11:55:32.042Z,17.67
2017-01-21T11:56:31.981Z,17.67
2017-01-21T11:57:31.919Z,17.76
2017-01-21T11:58:31.858Z,17.67
2017-01-21T11:59:31.799Z,17.58
2017-01-21T12:00:31.740Z,17.57
2017-01-21T12:01:31.672Z,17.57
2017-01-21T12:02:31.611Z,17.58
2017-01-21T12:03:31.549Z,17.57
2017-01-21T12:04:31.497Z,17.58
2017-01-21T12:05:31.425Z,17.58
2017-01-21T12:06:31.367Z,17.47
2017-01-21T12:07:31.303Z,17.67
2017-01-21T12:08:31.241Z,17.77
2017-01-21T12:09:31.180Z,17.57
2017-01-21T12:10:31.122Z,17.86
2017-01-21T12:11:31.066Z,17.67
2017-01-21T12:12:30.994Z,17.68
2017-01-21T12:13:30.933Z,17.86
2017-01-21T12:14:30.870Z,17.57
2017-01-21T12:15:30.810Z,17.58
2017-01-21T12:16:30.753Z,17.87
2017-01-21T12:17:30.686Z,17.68
2017-01-21T12:18:30.628Z,17.86
2017-01-21T12:19:30.563Z,17.86
2017-01-21T12:20:30.500Z,17.86
2017-01-21T12:21:30.438Z,17.97
2017-01-21T12:22:30.379Z,17.57
2017-01-21T12:23:30.316Z,17.87
2017-01-21T12:24:30.255Z,17.87
2017-01-21T12:25:30.192Z,17.67
2017-01-21T12:26:30.132Z,17.87
2017-01-21T12:27:30.069Z,18.05
2017-01-21T12:28:30.009Z,18.05
2017-01-21T12:29:29.951Z,17.68
2017-01-21T12:30:29.889Z,17.96
2017-01-21T12:31:29.821Z,17.97
2017-01-21T12:32:29.761Z,18.05
2017-01-21T12:33:29.713Z,17.96
2017-01-21T12:34:29.636Z,17.87
2017-01-21T12:35:29.576Z,17.68
2017-01-21T12:36:29.513Z,17.97
2017-01-21T12:37:29.655Z,17.96
2017-01-21T12:38:29.390Z,17.87
2017-01-21T12:39:29.330Z,17.97
2017-01-21T12:40:29.267Z,17.97
2017-01-21T12:41:29.206Z,17.67
2017-01-21T12:42:29.146Z,17.97
2017-01-21T12:43:29.086Z,17.97
2017-01-21T12:44:29.022Z,17.97
2017-01-21T12:45:28.959Z,17.87
2017-01-21T12:46:28.898Z,17.87
2017-01-21T12:47:28.836Z,18.06
2017-01-21T12:48:28.775Z,17.97
2017-01-21T12:49:28.914Z,17.87
2017-01-21T12:50:28.652Z,17.68
2017-01-21T12:51:28.590Z,17.77
2017-01-21T12:52:28.530Z,17.87
2017-01-21T12:53:28.471Z,17.87
2017-01-21T12:54:28.405Z,17.86
2017-01-21T12:55:28.345Z,17.58
2017-01-21T12:56:28.281Z,17.87
2017-01-21T12:57:28.222Z,17.87
2017-01-21T12:58:28.161Z,17.68
2017-01-21T12:59:28.096Z,17.58
2017-01-21T13:00:28.037Z,17.58
2017-01-21T13:01:27.973Z,17.77
2017-01-21T13:02:27.913Z,17.68
2017-01-21T13:03:27.852Z,17.68
2017-01-21T13:04:27.790Z,17.68
2017-01-21T13:05:27.729Z,17.68
2017-01-21T13:06:27.667Z,17.77
2017-01-21T13:07:27.607Z,17.68
2017-01-21T13:08:27.542Z,17.77
2017-01-21T13:09:27.483Z,17.58
2017-01-21T13:10:27.419Z,17.77
2017-01-21T13:11:27.365Z,17.77
2017-01-21T13:12:27.297Z,17.77
2017-01-21T13:13:27.235Z,17.58
2017-01-21T13:14:27.174Z,17.58
2017-01-21T13:15:27.115Z,17.68
2017-01-21T13:16:27.052Z,17.77
2017-01-21T13:17:26.992Z,17.77
2017-01-21T13:18:26.928Z,17.77
2017-01-21T13:19:26.867Z,17.68
2017-01-21T13:20:26.808Z,17.68
2017-01-21T13:21:26.743Z,17.68
2017-01-21T13:22:26.680Z,17.68
2017-01-21T13:23:26.622Z,17.68
2017-01-21T13:24:26.559Z,17.68
2017-01-21T13:25:26.496Z,17.77
2017-01-21T13:26:26.437Z,17.87
2017-01-21T13:27:26.374Z,17.77
2017-01-21T13:28:26.315Z,17.77
2017-01-21T13:29:26.256Z,17.58
2017-01-21T13:30:26.192Z,17.77
2017-01-21T13:31:26.129Z,17.68
2017-01-21T13:32:26.077Z,17.68
2017-01-21T13:33:26.005Z,17.77
2017-01-21T13:34:25.942Z,17.58
2017-01-21T13:35:25.884Z,17.58
2017-01-21T13:36:25.818Z,17.58
2017-01-21T13:37:25.760Z,17.39
2017-01-21T13:38:25.695Z,17.58
2017-01-21T13:39:25.636Z,17.39
2017-01-21T13:40:25.576Z,17.58
2017-01-21T13:41:25.514Z,17.58
2017-01-21T13:42:25.452Z,17.39
2017-01-21T13:43:25.388Z,17.29
2017-01-21T13:44:25.333Z,17.19
2017-01-21T13:45:25.266Z,17.19
2017-01-21T13:46:25.207Z,17.19
2017-01-21T13:47:25.144Z,17.19
2017-01-21T13:48:25.083Z,17.19
2017-01-21T13:49:25.048Z,17.19
2017-01-21T13:50:24.959Z,17.19
2017-01-21T13:51:24.899Z,17.19
2017-01-21T13:52:24.840Z,17.19
2017-01-21T13:53:24.777Z,17.39
2017-01-21T13:54:24.714Z,17.1
2017-01-21T13:55:24.651Z,17.1
2017-01-21T13:56:24.591Z,17.19
2017-01-21T13:57:24.526Z,17.29
2017-01-21T13:58:24.464Z,17.29
2017-01-21T13:59:24.406Z,17.29
2017-01-21T14:00:24.342Z,17.29